createdAt,value
2022-08-21T00:00:07.394Z,101505.97
2022-08-21T00:02:46.013Z,101512.34
2022-08-21T00:05:13.166Z,101501.72
2022-08-21T00:07:40.215Z,101511.53
2022-08-21T00:10:07.579Z,101505.38
2022-08-21T00:12:34.681Z,101508.91
2022-08-21T00:15:01.768Z,101508.97
2022-08-21T00:17:28.968Z,101509.84
2022-08-21T00:19:55.958Z,101508.19
2022-08-21T00:22:22.870Z,101507.19
2022-08-21T00:24:49.827Z,101509.16
2022-08-21T00:27:16.848Z,101511.94
2022-08-21T00:29:43.967Z,101501.34
2022-08-21T00:32:10.985Z,101503.28
2022-08-21T00:34:38.074Z,101503.34
2022-08-21T00:37:05.595Z,101499.75
2022-08-21T00:39:32.600Z,101506.13
2022-08-21T00:41:59.544Z,101508.69
2022-08-21T00:44:26.656Z,101506.13
2022-08-21T00:46:53.900Z,101495.47
2022-08-21T00:49:21.464Z,101498.19
2022-08-21T00:51:55.054Z,101497.28
2022-08-21T00:54:23.678Z,101491.22
2022-08-21T00:56:54.233Z,101495.53
2022-08-21T00:59:23.011Z,101492.16
2022-08-21T01:01:51.274Z,101491.28
2022-08-21T01:04:18.739Z,101492.44
2022-08-21T01:06:45.783Z,101491.56
2022-08-21T01:09:13.613Z,101495.19
2022-08-21T01:11:41.213Z,101496.13
2022-08-21T01:14:08.287Z,101480.09
2022-08-21T01:16:35.591Z,101479.34
2022-08-21T01:19:02.584Z,101492.63
2022-08-21T01:21:29.594Z,101493.50
2022-08-21T01:23:57.366Z,101493.59
2022-08-21T01:26:34.138Z,101489.16
2022-08-21T01:29:20.894Z,101480.22
2022-08-21T01:31:47.893Z,101474.03
2022-08-21T01:34:17.914Z,101475.78
2022-08-21T01:36:46.081Z,101469.56
2022-08-21T01:39:13.542Z,101476.69
2022-08-21T01:41:40.635Z,101481.34
2022-08-21T01:44:07.823Z,101470.59
2022-08-21T01:46:35.496Z,101476.06
2022-08-21T01:49:02.455Z,101480.59
2022-08-21T01:51:29.644Z,101481.47
2022-08-21T01:53:56.486Z,101473.53
2022-08-21T01:56:23.778Z,101470.00
2022-08-21T01:58:51.513Z,101458.44
2022-08-21T02:01:18.731Z,101456.69
2022-08-21T02:03:46.104Z,101448.84
2022-08-21T02:06:16.706Z,101445.34
2022-08-21T02:08:43.576Z,101447.94
2022-08-21T02:11:12.682Z,101455.13
2022-08-21T02:13:39.718Z,101445.38
2022-08-21T02:16:08.312Z,101447.13
2022-08-21T02:18:36.136Z,101439.09
2022-08-21T02:21:03.847Z,101452.66
2022-08-21T02:23:31.276Z,101446.47
2022-08-21T02:25:59.163Z,101450.00
2022-08-21T02:28:26.407Z,101453.44
2022-08-21T02:30:55.588Z,101446.50
2022-08-21T02:33:23.064Z,101440.34
2022-08-21T02:35:51.179Z,101437.66
2022-08-21T02:38:21.368Z,101439.47
2022-08-21T02:40:50.959Z,101443.88
2022-08-21T02:43:19.777Z,101426.16
2022-08-21T02:45:49.211Z,101428.03
2022-08-21T02:48:18.047Z,101427.94
2022-08-21T02:50:46.889Z,101422.72
2022-08-21T02:53:17.690Z,101430.59
2022-08-21T02:55:49.225Z,101428.91
2022-08-21T02:58:17.463Z,101421.75
2022-08-21T03:00:45.349Z,101429.94
2022-08-21T03:03:13.651Z,101420.88
2022-08-21T03:05:40.793Z,101418.34
2022-08-21T03:08:11.728Z,101411.25
2022-08-21T03:10:44.289Z,101421.13
2022-08-21T03:13:12.158Z,101408.63
2022-08-21T03:15:39.698Z,101416.69
2022-08-21T03:18:08.054Z,101412.38
2022-08-21T03:20:36.289Z,101419.59
2022-08-21T03:23:04.555Z,101417.00
2022-08-21T03:25:41.113Z,101414.34
2022-08-21T03:28:12.988Z,101405.56
2022-08-21T03:30:48.137Z,101406.56
2022-08-21T03:33:16.121Z,101404.03
2022-08-21T03:35:45.761Z,101397.78
2022-08-21T03:38:14.307Z,101399.56
2022-08-21T03:40:42.938Z,101408.53
2022-08-21T03:43:10.758Z,101404.13
2022-08-21T03:45:38.871Z,101400.69
2022-08-21T03:48:06.776Z,101404.31
2022-08-21T03:50:40.955Z,101412.25
2022-08-21T03:53:17.099Z,101413.25
2022-08-21T03:55:48.045Z,101410.63
2022-08-21T03:58:17.376Z,101411.81
2022-08-21T04:00:49.595Z,101419.06
2022-08-21T04:03:17.400Z,101415.59
2022-08-21T04:05:46.492Z,101413.78
2022-08-21T04:08:14.663Z,101414.72
2022-08-21T04:10:46.557Z,101409.28
2022-08-21T04:13:13.813Z,101409.34
2022-08-21T04:15:42.109Z,101412.03
2022-08-21T04:18:09.667Z,101409.28
2022-08-21T04:20:36.757Z,101411.03
2022-08-21T04:23:04.607Z,101411.94
2022-08-21T04:25:32.137Z,101413.75
2022-08-21T04:27:59.549Z,101411.91
2022-08-21T04:30:28.301Z,101409.19
2022-08-21T04:32:57.283Z,101410.03
2022-08-21T04:35:25.688Z,101406.44
2022-08-21T04:37:52.941Z,101414.41
2022-08-21T04:40:20.959Z,101410.84
2022-08-21T04:42:50.872Z,101411.81
2022-08-21T04:45:37.119Z,101412.63
2022-08-21T04:48:06.412Z,101416.16
2022-08-21T04:50:40.284Z,101420.63
2022-08-21T04:53:08.837Z,101414.41
2022-08-21T04:55:36.072Z,101404.75
2022-08-21T04:58:03.181Z,101416.16
2022-08-21T05:00:30.604Z,101409.19
2022-08-21T05:03:00.526Z,101411.09
2022-08-21T05:05:30.242Z,101414.72
2022-08-21T05:07:58.821Z,101411.38
2022-08-21T05:10:27.045Z,101416.66
2022-08-21T05:12:54.744Z,101412.09
2022-08-21T05:15:22.169Z,101405.91
2022-08-21T05:17:53.751Z,101415.78
2022-08-21T05:20:28.180Z,101415.81
2022-08-21T05:22:55.202Z,101423.84
2022-08-21T05:25:23.716Z,101418.59
2022-08-21T05:27:52.114Z,101420.44
2022-08-21T05:30:22.881Z,101424.03
2022-08-21T05:32:49.908Z,101432.13
2022-08-21T05:35:16.857Z,101428.63
2022-08-21T05:37:43.881Z,101435.78
2022-08-21T05:40:21.423Z,101430.59
2022-08-21T05:42:55.385Z,101433.25
2022-08-21T05:45:41.342Z,101436.81
2022-08-21T05:48:10.947Z,101436.00
2022-08-21T05:50:39.410Z,101438.75
2022-08-21T05:53:07.867Z,101444.06
2022-08-21T05:55:37.308Z,101440.69
2022-08-21T05:58:07.770Z,101441.50
2022-08-21T06:00:37.652Z,101443.25
2022-08-21T06:03:04.905Z,101443.25
2022-08-21T06:05:36.615Z,101441.38
2022-08-21T06:08:05.321Z,101444.81
2022-08-21T06:10:34.930Z,101438.56
2022-08-21T06:13:01.880Z,101443.78
2022-08-21T06:15:28.948Z,101449.84
2022-08-21T06:17:56.120Z,101447.94
2022-08-21T06:20:23.293Z,101448.78
2022-08-21T06:22:50.478Z,101452.34
2022-08-21T06:25:17.398Z,101449.59
2022-08-21T06:27:44.468Z,101447.72
2022-08-21T06:30:11.776Z,101453.13
2022-08-21T06:32:39.120Z,101459.13
2022-08-21T06:35:06.476Z,101459.22
2022-08-21T06:37:34.198Z,101457.22
2022-08-21T06:40:01.389Z,101458.97
2022-08-21T06:42:31.330Z,101459.03
2022-08-21T06:44:58.752Z,101458.84
2022-08-21T06:47:25.814Z,101461.50
2022-08-21T06:49:53.580Z,101460.56
2022-08-21T06:52:20.561Z,101459.66
2022-08-21T06:54:47.536Z,101445.81
2022-08-21T06:57:14.704Z,101450.75
2022-08-21T06:59:41.731Z,101441.69
2022-08-21T07:02:09.122Z,101441.69
2022-08-21T07:04:36.477Z,101441.69
2022-08-21T07:07:04.029Z,101436.16
2022-08-21T07:09:31.266Z,101435.00
2022-08-21T07:11:58.748Z,101439.56
2022-08-21T07:14:26.104Z,101435.72
2022-08-21T07:16:53.250Z,101439.09
2022-08-21T07:19:20.685Z,101433.91
2022-08-21T07:21:47.971Z,101429.94
2022-08-21T07:24:15.486Z,101420.31
2022-08-21T07:26:42.459Z,101422.81
2022-08-21T07:29:09.545Z,101424.22
2022-08-21T07:31:36.425Z,101431.19
2022-08-21T07:34:03.674Z,101428.47
2022-08-21T07:36:30.789Z,101424.03
2022-08-21T07:39:00.413Z,101425.47
2022-08-21T07:41:29.882Z,101426.94
2022-08-21T07:43:58.525Z,101423.84
2022-08-21T07:46:26.058Z,101421.06
2022-08-21T07:48:53.647Z,101426.03
2022-08-21T07:51:23.257Z,101416.75
2022-08-21T07:53:55.535Z,101413.72
2022-08-21T07:56:22.699Z,101411.94
2022-08-21T07:58:52.788Z,101418.75
2022-08-21T08:01:20.210Z,101412.53
2022-08-21T08:03:47.517Z,101414.59
2022-08-21T08:06:16.528Z,101414.53
2022-08-21T08:08:44.163Z,101416.41
2022-08-21T08:11:12.019Z,101417.28
2022-08-21T08:13:40.262Z,101419.13
2022-08-21T08:16:07.675Z,101418.34
2022-08-21T08:18:34.628Z,101421.19
2022-08-21T08:21:01.863Z,101413.66
2022-08-21T08:23:29.082Z,101412.13
2022-08-21T08:25:56.086Z,101408.19
2022-08-21T08:28:23.307Z,101413.34
2022-08-21T08:30:50.903Z,101408.00
2022-08-21T08:33:18.169Z,101407.63
2022-08-21T08:35:46.685Z,101398.47
2022-08-21T08:38:16.873Z,101397.56
2022-08-21T08:40:52.574Z,101395.22
2022-08-21T08:43:20.051Z,101390.66
2022-08-21T08:45:49.697Z,101399.13
2022-08-21T08:48:21.136Z,101398.06
2022-08-21T08:50:50.921Z,101400.66
2022-08-21T08:53:41.165Z,101405.28
2022-08-21T08:56:08.663Z,101395.19
2022-08-21T08:58:38.920Z,101392.44
2022-08-21T09:01:11.358Z,101398.34
2022-08-21T09:03:40.280Z,101395.66
2022-08-21T09:06:25.849Z,101394.66
2022-08-21T09:09:16.059Z,101395.81
2022-08-21T09:11:47.214Z,101398.13
2022-08-21T09:14:34.796Z,101390.72
2022-08-21T09:17:20.768Z,101396.19
2022-08-21T09:20:11.498Z,101388.38
2022-08-21T09:22:57.490Z,101395.50
2022-08-21T09:25:26.851Z,101394.38
2022-08-21T09:27:54.213Z,101395.56
2022-08-21T09:30:25.507Z,101396.97
2022-08-21T09:32:52.512Z,101394.88
2022-08-21T09:35:21.493Z,101393.94
2022-08-21T09:38:07.492Z,101395.50
2022-08-21T09:40:34.447Z,101396.41
2022-08-21T09:43:03.378Z,101392.94
2022-08-21T09:45:31.136Z,101393.31
2022-08-21T09:48:11.093Z,101389.81
2022-08-21T09:50:38.097Z,101387.28
2022-08-21T09:53:05.098Z,101386.81
2022-08-21T09:55:52.735Z,101387.00
2022-08-21T09:58:21.412Z,101375.38
2022-08-21T10:00:58.102Z,101379.72
2022-08-21T10:03:26.104Z,101375.31
2022-08-21T10:05:53.117Z,101368.69
2022-08-21T10:08:21.454Z,101373.38
2022-08-21T10:10:52.025Z,101374.44
2022-08-21T10:13:46.764Z,101362.31
2022-08-21T10:16:32.779Z,101354.66
2022-08-21T10:19:02.674Z,101349.59
2022-08-21T10:22:02.305Z,101339.91
2022-08-21T10:24:32.297Z,101339.78
2022-08-21T10:26:59.221Z,101343.50
2022-08-21T10:29:45.349Z,101340.97
2022-08-21T10:32:21.279Z,101338.28
2022-08-21T10:35:11.631Z,101346.16
2022-08-21T10:37:48.837Z,101341.47
2022-08-21T10:40:19.099Z,101341.94
2022-08-21T10:42:56.723Z,101337.97
2022-08-21T10:45:32.400Z,101335.72
2022-08-21T10:48:06.590Z,101336.28
2022-08-21T10:50:41.051Z,101345.06
2022-08-21T10:53:28.339Z,101347.44
2022-08-21T10:56:03.105Z,101335.56
2022-08-21T10:58:31.852Z,101328.06
2022-08-21T11:01:19.122Z,101325.78
2022-08-21T11:03:47.904Z,101334.28
2022-08-21T11:06:23.402Z,101321.38
2022-08-21T11:08:58.000Z,101317.50
2022-08-21T11:11:35.268Z,101314.78
2022-08-21T11:14:06.595Z,101311.63
2022-08-21T11:16:33.512Z,101308.84
2022-08-21T11:19:20.890Z,101295.16
2022-08-21T11:21:54.166Z,101307.75
2022-08-21T11:24:38.212Z,101297.75
2022-08-21T11:27:19.549Z,101286.00
2022-08-21T11:29:50.132Z,101286.47
2022-08-21T11:32:20.300Z,101291.63
2022-08-21T11:34:58.711Z,101285.44
2022-08-21T11:37:42.270Z,101275.44
2022-08-21T11:40:10.198Z,101283.06
2022-08-21T11:42:40.743Z,101299.94
2022-08-21T11:45:33.963Z,101271.22
2022-08-21T11:48:20.986Z,101263.72
2022-08-21T11:50:49.326Z,101268.31
2022-08-21T11:53:21.200Z,101262.09
2022-08-21T11:55:48.132Z,101253.88
2022-08-21T11:58:22.058Z,101255.16
2022-08-21T12:00:57.618Z,101255.19
2022-08-21T12:03:24.515Z,101253.56
2022-08-21T12:06:09.410Z,101260.63
2022-08-21T12:08:39.494Z,101251.78
2022-08-21T12:11:15.811Z,101255.50
2022-08-21T12:13:54.635Z,101255.91
2022-08-21T12:16:30.783Z,101257.22
2022-08-21T12:19:08.763Z,101245.41
2022-08-21T12:21:48.517Z,101239.97
2022-08-21T12:24:15.565Z,101238.50
2022-08-21T12:26:48.576Z,101231.41
2022-08-21T12:29:19.295Z,101235.31
2022-08-21T12:31:54.814Z,101237.50
2022-08-21T12:34:24.229Z,101237.59
2022-08-21T12:36:55.352Z,101247.44
2022-08-21T12:39:25.199Z,101243.78
2022-08-21T12:42:01.811Z,101237.09
2022-08-21T12:44:38.943Z,101238.88
2022-08-21T12:47:24.592Z,101230.53
2022-08-21T12:49:58.642Z,101230.63
2022-08-21T12:52:30.414Z,101226.66
2022-08-21T12:54:57.487Z,101231.00
2022-08-21T12:57:28.627Z,101222.41
2022-08-21T12:59:57.504Z,101224.75
2022-08-21T13:02:36.785Z,101224.47
2022-08-21T13:05:06.153Z,101221.94
2022-08-21T13:07:37.070Z,101210.47
2022-08-21T13:10:04.203Z,101216.56
2022-08-21T13:12:34.427Z,101211.56
2022-08-21T13:15:08.376Z,101229.94
2022-08-21T13:17:38.961Z,101218.59
2022-08-21T13:20:09.046Z,101203.69
2022-08-21T13:22:42.554Z,101216.09
2022-08-21T13:25:18.111Z,101211.66
2022-08-21T13:27:59.581Z,101207.13
2022-08-21T13:30:26.552Z,101212.81
2022-08-21T13:32:59.489Z,101203.34
2022-08-21T13:35:32.995Z,101197.44
2022-08-21T13:38:00.450Z,101195.03
2022-08-21T13:40:34.918Z,101196.06
2022-08-21T13:43:02.361Z,101194.97
2022-08-21T13:45:32.862Z,101196.34
2022-08-21T13:48:06.035Z,101204.81
2022-08-21T13:50:36.294Z,101194.47
2022-08-21T13:53:04.947Z,101206.19
2022-08-21T13:55:43.344Z,101212.19
2022-08-21T13:58:11.445Z,101192.28
2022-08-21T14:00:48.403Z,101187.28
2022-08-21T14:03:27.224Z,101190.66
2022-08-21T14:05:54.267Z,101191.19
2022-08-21T14:08:30.422Z,101177.28
2022-08-21T14:10:58.560Z,101178.38
2022-08-21T14:13:53.515Z,101178.97
2022-08-21T14:16:34.510Z,101173.88
2022-08-21T14:19:06.504Z,101175.31
2022-08-21T14:21:45.216Z,101164.69
2022-08-21T14:24:41.406Z,101177.56
2022-08-21T14:27:16.593Z,101156.56
2022-08-21T14:29:46.910Z,101156.81
2022-08-21T14:32:26.018Z,101148.34
2022-08-21T14:34:55.116Z,101131.22
2022-08-21T14:37:30.395Z,101138.16
2022-08-21T14:40:16.121Z,101131.28
2022-08-21T14:42:47.035Z,101139.13
2022-08-21T14:45:24.698Z,101151.63
2022-08-21T14:47:56.764Z,101150.47
2022-08-21T14:50:24.486Z,101157.56
2022-08-21T14:52:59.185Z,101135.91
2022-08-21T14:55:30.236Z,101104.84
2022-08-21T14:58:03.842Z,101092.06
2022-08-21T15:00:36.245Z,101081.84
2022-08-21T15:03:08.627Z,101074.88
2022-08-21T15:05:36.209Z,101098.88
2022-08-21T15:08:06.573Z,101127.50
2022-08-21T15:10:48.117Z,101152.56
2022-08-21T15:13:26.851Z,101165.78
2022-08-21T15:15:54.636Z,101159.00
2022-08-21T15:18:22.151Z,101165.63
2022-08-21T15:20:52.404Z,101160.00
2022-08-21T15:23:19.935Z,101160.50
2022-08-21T15:25:48.291Z,101152.59
2022-08-21T15:28:17.902Z,101131.19
2022-08-21T15:30:46.777Z,101097.28
2022-08-21T15:33:14.660Z,101092.47
2022-08-21T15:35:41.871Z,101119.03
2022-08-21T15:38:11.379Z,101173.53
2022-08-21T15:40:39.137Z,101216.22
2022-08-21T15:43:06.806Z,101232.41
2022-08-21T15:45:35.047Z,101211.41
2022-08-21T15:48:02.381Z,101179.94
2022-08-21T15:50:30.313Z,101142.06
2022-08-21T15:52:57.458Z,101122.25
2022-08-21T15:55:24.754Z,101163.75
2022-08-21T15:57:57.414Z,101180.22
2022-08-21T16:00:25.866Z,101201.22
2022-08-21T16:02:58.579Z,101218.72
2022-08-21T16:05:26.067Z,101234.03
2022-08-21T16:07:53.124Z,101233.38
2022-08-21T16:10:29.830Z,101210.00
2022-08-21T16:13:00.227Z,101189.78
2022-08-21T16:15:27.910Z,101189.53
2022-08-21T16:17:55.144Z,101206.69
2022-08-21T16:20:25.365Z,101241.00
2022-08-21T16:22:53.205Z,101295.72
2022-08-21T16:25:20.131Z,101341.38
2022-08-21T16:27:49.152Z,101274.50
2022-08-21T16:30:16.805Z,101276.91
2022-08-21T16:32:44.311Z,101264.44
2022-08-21T16:35:13.776Z,101270.88
2022-08-21T16:37:42.899Z,101270.75
2022-08-21T16:40:10.820Z,101279.84
2022-08-21T16:42:38.760Z,101295.50
2022-08-21T16:45:06.886Z,101286.63
2022-08-21T16:47:37.100Z,101289.53
2022-08-21T16:50:07.745Z,101286.50
2022-08-21T16:52:35.768Z,101279.19
2022-08-21T16:55:03.146Z,101320.63
2022-08-21T16:57:30.182Z,101345.59
2022-08-21T16:59:57.268Z,101359.53
2022-08-21T17:02:30.080Z,101340.56
2022-08-21T17:04:57.236Z,101297.66
2022-08-21T17:07:24.146Z,101274.94
2022-08-21T17:09:51.518Z,101280.81
2022-08-21T17:12:20.236Z,101270.81
2022-08-21T17:14:50.441Z,101252.47
2022-08-21T17:17:17.786Z,101253.09
2022-08-21T17:19:45.392Z,101259.22
2022-08-21T17:22:14.840Z,101262.84
2022-08-21T17:24:42.106Z,101273.34
2022-08-21T17:27:10.945Z,101288.47
2022-08-21T17:29:38.795Z,101299.09
2022-08-21T17:32:09.934Z,101308.13
2022-08-21T17:34:37.902Z,101299.66
2022-08-21T17:37:05.178Z,101293.28
2022-08-21T17:39:32.109Z,101295.06
2022-08-21T17:42:01.929Z,101287.28
2022-08-21T17:44:28.966Z,101274.50
2022-08-21T17:46:55.819Z,101263.72
2022-08-21T17:49:22.953Z,101266.31
2022-08-21T17:51:50.019Z,101259.09
2022-08-21T17:54:19.736Z,101255.63
2022-08-21T17:56:46.904Z,101247.16
2022-08-21T17:59:14.775Z,101253.50
2022-08-21T18:01:43.141Z,101247.88
2022-08-21T18:04:11.163Z,101245.75
2022-08-21T18:06:38.913Z,101238.59
2022-08-21T18:09:06.088Z,101255.25
2022-08-21T18:11:33.658Z,101255.41
2022-08-21T18:14:07.164Z,101241.41
2022-08-21T18:16:35.693Z,101228.88
2022-08-21T18:19:04.216Z,101240.34
2022-08-21T18:21:31.533Z,101234.56
2022-08-21T18:23:59.085Z,101231.75
2022-08-21T18:26:38.131Z,101235.28
2022-08-21T18:29:06.540Z,101238.75
2022-08-21T18:31:35.223Z,101235.41
2022-08-21T18:34:06.078Z,101252.28
2022-08-21T18:36:32.987Z,101257.13
2022-08-21T18:39:19.345Z,101255.78
2022-08-21T18:41:47.691Z,101258.50
2022-08-21T18:44:15.834Z,101259.03
2022-08-21T18:46:48.704Z,101262.31
2022-08-21T18:49:15.766Z,101264.94
2022-08-21T18:51:45.383Z,101270.78
2022-08-21T18:54:13.167Z,101277.94
2022-08-21T18:56:41.143Z,101271.88
2022-08-21T18:59:10.354Z,101267.69
2022-08-21T19:01:38.270Z,101266.72
2022-08-21T19:04:07.498Z,101265.31
2022-08-21T19:06:36.648Z,101261.63
2022-08-21T19:09:09.899Z,101266.44
2022-08-21T19:11:40.977Z,101270.25
2022-08-21T19:14:15.673Z,101275.78
2022-08-21T19:19:30.693Z,101284.13
2022-08-21T19:21:57.891Z,101271.56
2022-08-21T19:24:26.362Z,101284.13
2022-08-21T19:26:53.569Z,101285.75
2022-08-21T19:29:34.688Z,101287.47
2022-08-21T19:32:04.246Z,101292.03
2022-08-21T19:34:31.305Z,101294.56
2022-08-21T19:36:59.460Z,101297.94
2022-08-21T19:39:26.940Z,101287.34
2022-08-21T19:41:56.627Z,101291.66
2022-08-21T19:44:25.357Z,101285.56
2022-08-21T19:46:52.985Z,101289.97
2022-08-21T19:49:22.265Z,101289.81
2022-08-21T19:54:36.187Z,101300.25
2022-08-21T19:57:08.078Z,101294.06
2022-08-21T19:59:39.449Z,101301.41
2022-08-21T20:02:06.953Z,101295.81
2022-08-21T20:04:33.947Z,101296.69
2022-08-21T20:07:00.805Z,101294.16
2022-08-21T20:09:27.930Z,101297.56
2022-08-21T20:11:56.628Z,101303.63
2022-08-21T20:14:25.465Z,101296.53
2022-08-21T20:16:53.054Z,101300.13
2022-08-21T20:19:22.166Z,101301.03
2022-08-21T20:21:49.410Z,101315.03
2022-08-21T20:24:16.718Z,101314.00
2022-08-21T20:29:38.973Z,101316.41
2022-08-21T20:32:12.329Z,101321.03
2022-08-21T20:34:39.917Z,101316.50
2022-08-21T20:37:07.062Z,101314.69
2022-08-21T20:39:36.362Z,101310.09
2022-08-21T20:42:05.066Z,101315.53
2022-08-21T20:44:34.626Z,101310.16
2022-08-21T20:47:04.802Z,101308.31
2022-08-21T20:49:43.475Z,101313.63
2022-08-21T20:52:10.865Z,101311.84
2022-08-21T20:54:46.569Z,101312.63
2022-08-21T20:57:17.648Z,101316.34
2022-08-21T20:59:50.900Z,101319.97
2022-08-21T21:02:27.141Z,101324.38
2022-08-21T21:05:16.586Z,101318.13
2022-08-21T21:08:00.966Z,101321.50
2022-08-21T21:13:21.032Z,101324.31
2022-08-21T21:15:52.262Z,101322.53
2022-08-21T21:18:32.512Z,101319.88
2022-08-21T21:21:10.765Z,101324.41
2022-08-21T21:23:40.997Z,101318.19
2022-08-21T21:26:15.210Z,101327.16
2022-08-21T21:29:01.851Z,101316.63
2022-08-21T21:31:30.516Z,101316.69
2022-08-21T21:33:59.875Z,101313.25
2022-08-21T21:36:51.532Z,101316.63
2022-08-21T21:39:27.153Z,101310.41
2022-08-21T21:42:08.443Z,101318.38
2022-08-21T21:44:58.179Z,101319.19
2022-08-21T21:47:48.486Z,101317.59
2022-08-21T21:50:44.140Z,101316.69
2022-08-21T21:53:27.329Z,101308.66
2022-08-21T21:56:02.626Z,101313.22
2022-08-21T21:58:36.115Z,101314.00
2022-08-21T22:01:08.642Z,101308.66
2022-08-21T22:03:59.893Z,101309.59
2022-08-21T22:06:41.769Z,101306.16
2022-08-21T22:09:16.021Z,101306.09
2022-08-21T22:11:44.676Z,101303.50
2022-08-21T22:14:24.371Z,101308.66
2022-08-21T22:16:52.976Z,101299.00
2022-08-21T22:19:30.338Z,101300.84
2022-08-21T22:22:25.648Z,101301.78
2022-08-21T22:24:54.088Z,101299.09
2022-08-21T22:27:23.471Z,101294.78
2022-08-21T22:29:54.956Z,101299.19
2022-08-21T22:32:25.090Z,101299.19
2022-08-21T22:35:05.763Z,101293.88
2022-08-21T22:37:38.125Z,101296.72
2022-08-21T22:40:05.863Z,101297.44
2022-08-21T22:42:33.514Z,101296.59
2022-08-21T22:45:02.194Z,101296.59
2022-08-21T22:47:31.784Z,101290.41
2022-08-21T22:50:04.413Z,101292.13
2022-08-21T22:52:36.666Z,101290.53
2022-08-21T22:55:30.302Z,101294.22
2022-08-21T22:58:03.292Z,101296.00
2022-08-21T23:00:42.800Z,101294.31
2022-08-21T23:03:17.596Z,101292.66
2022-08-21T23:05:45.729Z,101292.53
2022-08-21T23:08:24.166Z,101292.63
2022-08-21T23:10:57.302Z,101287.25
2022-08-21T23:13:26.668Z,101297.13
2022-08-21T23:16:03.978Z,101288.22
2022-08-21T23:18:44.261Z,101297.97
2022-08-21T23:21:28.803Z,101282.91
2022-08-21T23:24:02.396Z,101284.72
2022-08-21T23:26:40.731Z,101278.53
2022-08-21T23:29:24.818Z,101268.03
2022-08-21T23:32:13.654Z,101267.06
2022-08-21T23:34:55.696Z,101272.47
2022-08-21T23:37:51.735Z,101273.34
2022-08-21T23:40:19.282Z,101270.69
2022-08-21T23:42:55.487Z,101274.22
2022-08-21T23:45:34.245Z,101265.38
2022-08-21T23:48:01.165Z,101274.34
2022-08-21T23:50:44.018Z,101268.03
2022-08-21T23:53:16.866Z,101262.63
2022-08-21T23:55:47.801Z,101259.09
2022-08-21T23:58:39.431Z,101251.19
